createdAt,value
2023-01-07T00:03:04.473Z,56.03
2023-01-07T00:08:06.728Z,55.96
2023-01-07T00:13:08.589Z,56.38
2023-01-07T00:18:10.482Z,56.16
2023-01-07T00:23:12.295Z,56.23
2023-01-07T00:28:14.139Z,56.08
2023-01-07T00:33:17.360Z,56.28
2023-01-07T00:38:19.413Z,56.15
2023-01-07T00:43:21.414Z,56.56
2023-01-07T00:48:24.089Z,56.75
2023-01-07T00:53:25.922Z,56.99
2023-01-07T00:58:27.786Z,57.45
2023-01-07T01:03:31.876Z,57.50
2023-01-07T01:08:34.166Z,57.60
2023-01-07T01:13:37.094Z,57.68
2023-01-07T01:18:39.414Z,57.62
2023-01-07T01:23:42.787Z,57.88
2023-01-07T01:28:46.336Z,57.90
2023-01-07T01:33:57.480Z,58.32
2023-01-07T01:38:59.656Z,58.33
2023-01-07T01:44:56.461Z,58.51
2023-01-07T01:50:17.441Z,58.36
2023-01-07T01:55:24.109Z,57.93
2023-01-07T02:00:28.789Z,58.10
2023-01-07T02:05:35.045Z,58.05
2023-01-07T02:10:38.485Z,58.04
2023-01-07T02:15:59.107Z,58.54
2023-01-07T02:21:11.732Z,58.62
2023-01-07T02:26:47.847Z,58.88
2023-01-07T02:32:31.635Z,59.19
2023-01-07T02:37:51.521Z,58.95
2023-01-07T02:43:09.017Z,58.44
2023-01-07T02:48:14.686Z,58.39
2023-01-07T02:53:19.677Z,58.29
2023-01-07T02:58:45.263Z,57.59
2023-01-07T03:04:22.112Z,57.54
2023-01-07T03:09:26.781Z,57.61
2023-01-07T03:14:50.961Z,57.28
2023-01-07T03:19:57.921Z,57.41
2023-01-07T03:25:02.049Z,57.08
2023-01-07T03:30:09.720Z,57.07
2023-01-07T03:35:11.939Z,57.14
2023-01-07T03:40:14.189Z,57.20
2023-01-07T03:45:20.125Z,57.18
2023-01-07T03:50:22.810Z,57.17
2023-01-07T03:55:26.124Z,56.91
2023-01-07T04:00:30.783Z,56.90
2023-01-07T04:05:42.247Z,57.19
2023-01-07T04:10:45.541Z,56.87
2023-01-07T04:15:48.533Z,56.99
2023-01-07T04:20:50.641Z,57.26
2023-01-07T04:25:52.736Z,57.13
2023-01-07T04:31:01.497Z,56.92
2023-01-07T04:36:05.300Z,56.72
2023-01-07T04:41:07.365Z,56.82
2023-01-07T04:46:09.501Z,56.94
2023-01-07T04:51:11.756Z,56.94
2023-01-07T04:56:14.475Z,56.78
2023-01-07T05:01:16.642Z,56.75
2023-01-07T05:06:19.107Z,57.14
2023-01-07T05:11:22.656Z,57.28
2023-01-07T05:16:28.519Z,56.99
2023-01-07T05:21:34.123Z,57.24
2023-01-07T05:26:36.305Z,56.90
2023-01-07T05:31:38.688Z,56.76
2023-01-07T05:36:40.711Z,57.27
2023-01-07T05:41:42.630Z,56.91
2023-01-07T05:46:45.068Z,56.95
2023-01-07T05:51:47.102Z,56.72
2023-01-07T05:56:48.904Z,56.98
2023-01-07T06:01:50.731Z,56.98
2023-01-07T06:06:52.647Z,57.27
2023-01-07T06:11:54.462Z,56.59
2023-01-07T06:16:56.302Z,56.54
2023-01-07T06:21:58.201Z,56.52
2023-01-07T06:27:00.036Z,56.29
2023-01-07T06:32:01.867Z,56.58
2023-01-07T06:37:03.724Z,56.40
2023-01-07T06:42:05.668Z,56.01
2023-01-07T06:47:07.596Z,56.03
2023-01-07T06:52:09.431Z,56.00
2023-01-07T06:57:11.379Z,55.89
2023-01-07T07:02:22.529Z,55.92
2023-01-07T07:07:24.452Z,56.15
2023-01-07T07:12:26.351Z,55.59
2023-01-07T07:17:28.177Z,55.78
2023-01-07T07:22:30.044Z,56.17
2023-01-07T07:27:31.993Z,56.18
2023-01-07T07:32:34.347Z,55.75
2023-01-07T07:37:36.886Z,56.03
2023-01-07T07:43:11.456Z,55.85
2023-01-07T07:48:01.223Z,55.52
2023-01-07T07:53:03.253Z,55.44
2023-01-07T07:58:06.243Z,55.51
2023-01-07T08:03:08.453Z,55.29
2023-01-07T08:08:12.906Z,55.27
2023-01-07T08:13:14.749Z,55.26
2023-01-07T08:18:16.686Z,55.02
2023-01-07T08:23:18.665Z,55.18
2023-01-07T08:28:20.548Z,55.14
2023-01-07T08:33:22.619Z,54.79
2023-01-07T08:38:25.449Z,54.80
2023-01-07T08:43:27.799Z,54.76
2023-01-07T08:48:29.736Z,54.68
2023-01-07T08:53:31.550Z,54.63
2023-01-07T08:58:33.374Z,54.52
2023-01-07T09:03:35.419Z,54.66
2023-01-07T09:08:37.661Z,54.57
2023-01-07T09:13:39.502Z,54.90
2023-01-07T09:18:41.338Z,54.68
2023-01-07T09:23:43.096Z,54.62
2023-01-07T09:28:44.903Z,54.59
2023-01-07T09:33:46.787Z,54.35
2023-01-07T09:38:48.624Z,54.37
2023-01-07T09:44:00.862Z,54.22
2023-01-07T09:49:03.924Z,53.90
2023-01-07T09:54:17.479Z,54.09
2023-01-07T09:59:19.567Z,53.97
2023-01-07T10:04:40.272Z,53.84
2023-01-07T10:09:56.786Z,53.90
2023-01-07T10:14:58.593Z,53.74
2023-01-07T10:20:12.169Z,54.11
2023-01-07T10:25:31.102Z,53.82
2023-01-07T10:30:40.970Z,53.47
2023-01-07T10:35:48.171Z,53.60
2023-01-07T10:40:55.658Z,53.43
2023-01-07T10:46:23.565Z,53.28
2023-01-07T10:52:04.374Z,53.31
2023-01-07T10:57:29.268Z,52.95
2023-01-07T11:02:31.467Z,52.87
2023-01-07T11:07:50.112Z,52.78
2023-01-07T11:12:56.906Z,52.63
2023-01-07T11:18:13.995Z,51.84
2023-01-07T11:23:38.839Z,52.10
2023-01-07T11:28:48.571Z,52.34
2023-01-07T11:34:01.425Z,51.90
2023-01-07T11:39:20.065Z,51.25
2023-01-07T11:44:22.194Z,51.22
2023-01-07T11:49:30.005Z,50.55
2023-01-07T11:54:32.855Z,50.08
2023-01-07T11:59:34.706Z,49.97
2023-01-07T12:04:37.376Z,49.74
2023-01-07T12:09:41.103Z,50.12
2023-01-07T12:14:47.559Z,50.45
2023-01-07T12:20:01.227Z,50.36
2023-01-07T12:25:24.371Z,49.97
2023-01-07T12:30:54.810Z,49.72
2023-01-07T12:36:16.799Z,49.70
2023-01-07T12:41:28.395Z,49.48
2023-01-07T12:46:40.754Z,49.31
2023-01-07T12:52:12.659Z,46.55
2023-01-07T12:57:22.155Z,40.33
2023-01-07T13:02:59.331Z,37.78
2023-01-07T13:08:20.180Z,36.10
2023-01-07T13:13:34.678Z,35.84
2023-01-07T13:18:36.712Z,35.25
2023-01-07T13:23:56.657Z,35.24
2023-01-07T13:29:37.887Z,35.14
2023-01-07T13:34:59.998Z,37.04
2023-01-07T13:40:01.784Z,39.45
2023-01-07T13:45:06.383Z,41.80
2023-01-07T13:50:19.553Z,42.38
2023-01-07T13:55:39.795Z,43.25
2023-01-07T14:01:00.531Z,44.25
2023-01-07T14:06:20.789Z,44.51
2023-01-07T14:11:32.602Z,45.02
2023-01-07T14:17:19.411Z,44.65
2023-01-07T14:22:27.036Z,44.79
2023-01-07T14:27:59.605Z,45.17
2023-01-07T14:33:04.076Z,44.93
2023-01-07T14:38:33.947Z,45.72
2023-01-07T14:43:51.731Z,45.55
2023-01-07T14:49:02.521Z,45.71
2023-01-07T14:54:41.950Z,45.75
2023-01-07T15:00:20.616Z,46.03
2023-01-07T15:05:53.270Z,46.23
2023-01-07T15:11:17.716Z,46.26
2023-01-07T15:16:22.160Z,46.72
2023-01-07T15:21:41.981Z,46.72
2023-01-07T15:26:49.748Z,46.74
2023-01-07T15:32:25.341Z,46.88
2023-01-07T15:37:27.270Z,46.82
2023-01-07T15:42:29.912Z,46.81
2023-01-07T15:47:36.079Z,46.92
2023-01-07T15:52:37.956Z,47.09
2023-01-07T15:57:39.877Z,47.17
2023-01-07T16:02:43.817Z,47.73
2023-01-07T16:07:48.401Z,47.52
2023-01-07T16:12:56.375Z,47.79
2023-01-07T16:18:03.866Z,48.06
2023-01-07T16:23:26.599Z,48.10
2023-01-07T16:28:37.183Z,48.23
2023-01-07T16:33:40.803Z,48.23
2023-01-07T16:38:45.500Z,48.35
2023-01-07T16:43:47.849Z,48.92
2023-01-07T16:49:17.885Z,49.17
2023-01-07T16:54:26.086Z,49.36
2023-01-07T16:59:31.800Z,49.35
2023-01-07T17:04:34.248Z,49.60
2023-01-07T17:09:39.146Z,49.96
2023-01-07T17:14:41.411Z,49.60
2023-01-07T17:19:53.029Z,50.20
2023-01-07T17:25:03.281Z,51.53
2023-01-07T17:30:06.143Z,52.15
2023-01-07T17:35:16.805Z,51.53
2023-01-07T17:40:20.653Z,51.42
2023-01-07T17:45:22.699Z,51.44
2023-01-07T17:50:27.742Z,51.06
2023-01-07T17:55:31.876Z,50.86
2023-01-07T18:00:36.095Z,51.03
2023-01-07T18:05:39.056Z,51.45
2023-01-07T18:11:00.840Z,52.27
2023-01-07T18:16:03.356Z,51.56
2023-01-07T18:21:05.548Z,51.44
2023-01-07T18:26:08.067Z,51.78
2023-01-07T18:31:10.737Z,52.08
2023-01-07T18:36:12.783Z,52.61
2023-01-07T18:41:15.035Z,53.02
2023-01-07T18:46:17.829Z,52.57
2023-01-07T18:51:20.441Z,51.69
2023-01-07T18:56:22.734Z,52.28
2023-01-07T19:01:25.598Z,51.99
2023-01-07T19:06:27.931Z,52.30
2023-01-07T19:11:31.682Z,51.64
2023-01-07T19:16:33.735Z,52.12
2023-01-07T19:21:35.783Z,52.26
2023-01-07T19:26:37.850Z,52.01
2023-01-07T19:31:40.557Z,51.79
2023-01-07T19:36:47.133Z,52.36
2023-01-07T19:41:50.152Z,52.46
2023-01-07T19:46:53.310Z,53.19
2023-01-07T19:51:56.224Z,53.23
2023-01-07T19:56:58.573Z,52.96
2023-01-07T20:02:02.368Z,53.30
2023-01-07T20:07:05.139Z,53.64
2023-01-07T20:12:08.227Z,53.51
2023-01-07T20:17:10.853Z,52.87
2023-01-07T20:22:12.905Z,53.33
2023-01-07T20:27:14.914Z,53.17
2023-01-07T20:32:19.008Z,52.70
2023-01-07T20:37:24.264Z,52.64
2023-01-07T20:42:27.175Z,52.87
2023-01-07T20:47:29.126Z,53.09
2023-01-07T20:52:31.077Z,52.62
2023-01-07T20:57:32.954Z,52.55
2023-01-07T21:02:34.936Z,52.65
2023-01-07T21:07:37.131Z,52.96
2023-01-07T21:12:39.199Z,53.30
2023-01-07T21:17:42.278Z,53.33
2023-01-07T21:22:48.252Z,53.28
2023-01-07T21:27:50.112Z,53.12
2023-01-07T21:32:51.976Z,52.76
2023-01-07T21:37:55.165Z,53.17
2023-01-07T21:42:57.020Z,53.07
2023-01-07T21:47:58.945Z,52.59
2023-01-07T21:53:00.861Z,52.50
2023-01-07T21:58:02.725Z,53.04
2023-01-07T22:03:05.088Z,53.01
2023-01-07T22:08:07.095Z,53.11
2023-01-07T22:13:08.978Z,52.99
2023-01-07T22:18:10.921Z,53.16
2023-01-07T22:23:19.889Z,53.70
2023-01-07T22:28:23.573Z,53.37
2023-01-07T22:33:25.495Z,52.89
2023-01-07T22:38:27.977Z,53.26
2023-01-07T22:43:30.351Z,53.61
2023-01-07T22:48:35.539Z,53.54
2023-01-07T22:53:37.595Z,53.14
2023-01-07T22:58:39.529Z,53.58
2023-01-07T23:03:42.956Z,53.63
2023-01-07T23:08:44.968Z,53.16
2023-01-07T23:13:46.829Z,53.52
2023-01-07T23:18:48.670Z,53.56
2023-01-07T23:23:50.503Z,53.78
2023-01-07T23:28:52.540Z,53.40
2023-01-07T23:33:54.472Z,53.32
2023-01-07T23:38:56.690Z,53.61
2023-01-07T23:43:58.563Z,53.63
2023-01-07T23:49:00.515Z,54.07
2023-01-07T23:54:02.368Z,54.14
2023-01-07T23:59:04.215Z,53.97
